Lambs Grove, Massachusetts
Current Conditions -  °F | °C
As of 1:01 PM on Sunday 21 Dec 2014 (Local Time) from KORH Reporting Station
Light Snow Light Snow  
Wind Chill: 23°   Ceiling: 900
Heat Index: 29°   Visibility: 4mi
Dew Point: 27°   Wind: 6mph
Humidity: 92%   Direction: 20°NNE
Pressure: 30.25"   Gusts: NA
Location:  42.2477°N, 71.9927°W
Report Text: KORH 211801Z 02005KT 4SM -SN BR OVC009 M02/M03 A3025 RMK AO2 P0000 T10171028
Loading
Personal Weather Stations






























Interactive Weather Map New forecast layout! Learn more

10-Day Weather Forecast

Advertisements
Track Severe Weather on mobile